Time;durP1;ratioP1;P1;durP2;ratioP2;P2;SDS_P1;SDS_P2;PMS_P1;PMS_P2;Temp;Humidity;BMP_temperature;BMP_pressure;BME280_temperature;BME280_humidity;BME280_pressure;Samples;Min_cycle;Max_cycle;Signal;HPM_P1;HPM_P2
2022/06/21 00:00:04;;;;;;;0.00;0.00;;;22.70;89.60;;;;;;5063918;28;20075;-73
2022/06/21 00:02:31;;;;;;;0.00;0.00;;;22.60;90.00;;;;;;5062151;28;20028;-71
2022/06/21 00:04:57;;;;;;;0.00;0.00;;;22.60;89.90;;;;;;5069749;28;20036;-72
2022/06/21 00:07:26;;;;;;;0.00;0.00;;;22.50;89.40;;;;;;5061134;28;20017;-72
2022/06/21 00:09:52;;;;;;;0.00;0.00;;;22.40;88.90;;;;;;5068765;28;20032;-71
2022/06/21 00:12:19;;;;;;;0.00;0.00;;;22.40;88.80;;;;;;5065273;28;20017;-72
2022/06/21 00:14:45;;;;;;;0.00;0.00;;;22.40;88.70;;;;;;5067622;28;20028;-71
2022/06/21 00:17:14;;;;;;;0.00;0.00;;;22.30;88.80;;;;;;5047349;28;20393;-71
2022/06/21 00:19:43;;;;;;;0.00;0.00;;;22.30;88.50;;;;;;5065564;28;20576;-71
2022/06/21 00:22:12;;;;;;;0.00;0.00;;;22.20;89.10;;;;;;5052298;28;20319;-72
2022/06/21 00:24:38;;;;;;;0.00;0.00;;;22.20;89.60;;;;;;5051967;28;20082;-71
2022/06/21 00:27:10;;;;;;;0.00;0.00;;;22.20;90.00;;;;;;5071572;28;20024;-72
2022/06/21 00:29:36;;;;;;;0.00;0.00;;;22.20;90.30;;;;;;5069051;28;20055;-77
2022/06/21 00:32:01;;;;;;;0.00;0.00;;;22.20;90.60;;;;;;5061860;28;20025;-71
2022/06/21 00:34:27;;;;;;;0.00;0.00;;;22.20;90.40;;;;;;5045477;28;20028;-72
2022/06/21 00:36:53;;;;;;;0.00;0.00;;;22.10;90.40;;;;;;5060404;28;20029;-72
2022/06/21 00:39:20;;;;;;;0.00;0.00;;;22.10;90.80;;;;;;5042481;28;20599;-72
2022/06/21 00:42:00;;;;;;;0.00;0.00;;;22.00;90.90;;;;;;5060307;28;20271;-71
2022/06/21 00:44:40;;;;;;;0.00;0.00;;;22.00;91.20;;;;;;5065279;28;20094;-78
2022/06/21 00:47:18;;;;;;;0.00;0.00;;;21.90;91.10;;;;;;5047559;28;20031;-72
2022/06/21 00:49:53;;;;;;;0.00;0.00;;;21.90;91.30;;;;;;5060860;28;20299;-72
2022/06/21 00:52:26;;;;;;;0.00;0.00;;;21.90;91.50;;;;;;5063717;28;20375;-73
2022/06/21 00:55:04;;;;;;;0.00;0.00;;;21.80;91.40;;;;;;5062470;28;20180;-73
2022/06/21 00:57:43;;;;;;;0.00;0.00;;;21.80;91.40;;;;;;5063293;28;20025;-73
2022/06/21 01:00:32;;;;;;;0.00;0.00;;;21.80;91.60;;;;;;5064715;28;20073;-77
2022/06/21 01:03:02;;;;;;;0.00;0.00;;;21.70;91.60;;;;;;5066221;28;20017;-73
2022/06/21 01:05:31;;;;;;;0.00;0.00;;;21.70;91.60;;;;;;5071567;28;20035;-74
2022/06/21 01:07:57;;;;;;;0.00;0.00;;;21.70;92.10;;;;;;5067555;28;20258;-73
2022/06/21 01:10:24;;;;;;;0.00;0.00;;;21.60;91.90;;;;;;5050628;28;20332;-73
2022/06/21 01:13:13;;;;;;;0.00;0.00;;;21.60;91.90;;;;;;5053019;28;20025;-73
2022/06/21 01:15:43;;;;;;;0.00;0.00;;;21.50;91.90;;;;;;5059696;28;20100;-72
2022/06/21 01:18:10;;;;;;;0.00;0.00;;;21.50;92.00;;;;;;5050263;28;20070;-72
2022/06/21 01:20:43;;;;;;;0.00;0.00;;;21.40;92.00;;;;;;5065080;28;20227;-78
2022/06/21 01:23:08;;;;;;;0.00;0.00;;;21.40;92.00;;;;;;5045515;28;20124;-71
2022/06/21 01:25:53;;;;;;;0.00;0.00;;;21.40;92.00;;;;;;5040443;28;20017;-72
2022/06/21 01:28:19;;;;;;;0.00;0.00;;;21.30;91.60;;;;;;5066874;28;20208;-71
2022/06/21 01:30:48;;;;;;;0.00;0.00;;;21.30;91.50;;;;;;5043193;28;20025;-71
2022/06/21 01:33:17;;;;;;;0.00;0.00;;;21.30;91.30;;;;;;5052305;28;20059;-72
2022/06/21 01:35:52;;;;;;;0.00;0.00;;;21.20;91.00;;;;;;5062200;28;20017;-76
2022/06/21 01:38:28;;;;;;;0.00;0.00;;;21.20;90.40;;;;;;5055073;28;20027;-72
2022/06/21 01:40:59;;;;;;;0.00;0.00;;;21.20;89.90;;;;;;5050268;28;20020;-72
2022/06/21 01:43:29;;;;;;;0.00;0.00;;;21.10;89.10;;;;;;5046015;28;20041;-71
2022/06/21 01:46:01;;;;;;;0.00;0.00;;;21.00;88.90;;;;;;5045816;28;20307;-71
2022/06/21 01:48:38;;;;;;;0.00;0.00;;;21.00;88.30;;;;;;5062042;28;20013;-72
2022/06/21 01:51:13;;;;;;;0.00;0.00;;;21.00;86.80;;;;;;5046389;28;20024;-71
2022/06/21 01:53:40;;;;;;;0.00;0.00;;;20.80;86.00;;;;;;5059921;28;20329;-71
2022/06/21 01:56:21;;;;;;;0.00;0.00;;;20.80;86.50;;;;;;5030848;28;20031;-72
2022/06/21 01:58:56;;;;;;;0.00;0.00;;;20.80;86.20;;;;;;5069620;28;20038;-76
2022/06/21 02:01:35;;;;;;;0.00;0.00;;;20.70;86.40;;;;;;5060178;28;20049;-71
2022/06/21 02:04:03;;;;;;;0.00;0.00;;;20.60;86.10;;;;;;5063595;28;20032;-71
2022/06/21 02:06:35;;;;;;;0.00;0.00;;;20.60;85.10;;;;;;5060186;28;20266;-76
2022/06/21 02:09:30;;;;;;;0.00;0.00;;;20.50;85.00;;;;;;5043216;28;20083;-72
2022/06/21 02:12:06;;;;;;;0.00;0.00;;;20.40;84.20;;;;;;5050203;28;20090;-71
2022/06/21 02:14:37;;;;;;;0.00;0.00;;;20.30;83.20;;;;;;5066457;28;20100;-73
2022/06/21 02:17:26;;;;;;;0.00;0.00;;;20.20;82.50;;;;;;5068504;28;20017;-72
2022/06/21 02:20:03;;;;;;;0.00;0.00;;;20.10;82.00;;;;;;5069119;28;20222;-72
2022/06/21 02:22:31;;;;;;;0.00;0.00;;;20.10;82.20;;;;;;5067921;28;20283;-75
2022/06/21 02:24:57;;;;;;;0.00;0.00;;;20.10;82.70;;;;;;5067759;28;20195;-72
2022/06/21 02:27:29;;;;;;;0.00;0.00;;;20.10;82.80;;;;;;5071421;28;20231;-72
2022/06/21 02:29:58;;;;;;;0.00;0.00;;;20.00;82.60;;;;;;5048223;28;20063;-72
2022/06/21 02:32:40;;;;;;;0.00;0.00;;;20.00;81.90;;;;;;5067204;28;20065;-73
2022/06/21 02:35:28;;;;;;;0.00;0.00;;;20.00;82.30;;;;;;5066556;28;20510;-77
2022/06/21 02:37:55;;;;;;;;;;;20.00;82.10;;;;;;5071837;28;20458;-72
2022/06/21 02:40:26;;;;;;;0.00;0.00;;;20.00;82.00;;;;;;5049888;28;19912;-74
2022/06/21 02:42:56;;;;;;;0.00;0.00;;;20.00;81.70;;;;;;5046490;28;20161;-72
2022/06/21 02:45:37;;;;;;;0.00;0.00;;;20.00;82.00;;;;;;5072281;28;20091;-72
2022/06/21 02:48:12;;;;;;;0.00;0.00;;;20.00;81.90;;;;;;5064238;28;20020;-74
2022/06/21 02:50:44;;;;;;;0.00;0.00;;;20.00;81.40;;;;;;5065327;28;20372;-72
2022/06/21 02:53:19;;;;;;;0.00;0.00;;;19.90;80.10;;;;;;5070168;28;20288;-71
2022/06/21 02:56:05;;;;;;;0.00;0.00;;;19.90;76.60;;;;;;5044609;28;20021;-72
2022/06/21 02:58:39;;;;;;;0.00;0.00;;;19.80;77.00;;;;;;5049474;28;20096;-72
2022/06/21 03:01:33;;;;;;;0.00;0.00;;;19.70;76.30;;;;;;5067433;28;20088;-71
2022/06/21 03:03:59;;;;;;;0.00;0.00;;;19.70;74.80;;;;;;5067537;28;20052;-72
2022/06/21 03:06:27;;;;;;;0.00;0.00;;;19.60;74.20;;;;;;5068930;28;20017;-72
2022/06/21 03:09:08;;;;;;;0.00;0.00;;;19.50;74.60;;;;;;5067908;28;20024;-73
2022/06/21 03:11:46;;;;;;;0.00;0.00;;;19.50;75.50;;;;;;5069531;28;20059;-72
2022/06/21 03:14:18;;;;;;;0.00;0.00;;;19.40;75.60;;;;;;5065681;28;20074;-72
2022/06/21 03:16:45;;;;;;;0.00;0.00;;;19.40;76.00;;;;;;5064098;28;20088;-73
2022/06/21 03:19:23;;;;;;;0.00;0.00;;;19.40;76.00;;;;;;5046629;28;20088;-72
2022/06/21 03:21:49;;;;;;;0.00;0.00;;;19.30;76.20;;;;;;5065234;28;20196;-75
2022/06/21 03:24:20;;;;;;;0.00;0.00;;;19.40;75.10;;;;;;5064019;28;20049;-72
2022/06/21 03:26:54;;;;;;;0.00;0.00;;;19.40;74.80;;;;;;5051995;28;20035;-76
2022/06/21 03:29:20;;;;;;;0.00;0.00;;;19.40;74.50;;;;;;5065688;28;20016;-72
2022/06/21 03:31:48;;;;;;;0.00;0.00;;;19.30;73.10;;;;;;5060310;28;20024;-72
2022/06/21 03:34:18;;;;;;;0.00;0.00;;;19.30;72.30;;;;;;5067531;28;20025;-72
2022/06/21 03:36:44;;;;;;;0.00;0.00;;;19.30;72.60;;;;;;5064772;28;20138;-72
2022/06/21 03:39:14;;;;;;;0.00;0.00;;;19.20;72.70;;;;;;5069000;28;20048;-72
2022/06/21 03:41:43;;;;;;;0.00;0.00;;;19.20;72.30;;;;;;5068027;28;20262;-74
2022/06/21 03:44:24;;;;;;;0.00;0.00;;;19.20;72.00;;;;;;5068513;28;20246;-72
2022/06/21 03:47:00;;;;;;;0.00;0.00;;;19.20;72.10;;;;;;5063646;28;20279;-73
2022/06/21 03:49:34;;;;;;;0.00;0.00;;;19.20;72.10;;;;;;5067834;28;20111;-77
2022/06/21 03:52:05;;;;;;;0.00;0.00;;;19.20;72.80;;;;;;5052114;28;20099;-72
2022/06/21 03:54:37;;;;;;;0.00;0.00;;;19.20;72.70;;;;;;5061673;28;20033;-72
2022/06/21 03:57:12;;;;;;;0.00;0.00;;;19.20;72.60;;;;;;5068812;28;20084;-72
2022/06/21 03:59:58;;;;;;;0.00;0.00;;;19.30;71.90;;;;;;5070560;28;20061;-72
2022/06/21 04:02:38;;;;;;;0.00;0.00;;;19.30;71.20;;;;;;5067786;28;20025;-72
2022/06/21 04:05:15;;;;;;;0.00;0.00;;;19.30;71.60;;;;;;5062968;28;20123;-71
2022/06/21 04:07:45;;;;;;;0.00;0.00;;;19.30;71.20;;;;;;5050924;28;20362;-71
2022/06/21 04:10:26;;;;;;;0.00;0.00;;;19.40;71.60;;;;;;5049211;28;20029;-74
2022/06/21 04:12:57;;;;;;;0.00;0.00;;;19.40;71.40;;;;;;5041209;28;20711;-72
2022/06/21 04:15:26;;;;;;;0.00;0.00;;;19.40;71.10;;;;;;5042411;28;20036;-75
2022/06/21 04:17:56;;;;;;;0.00;0.00;;;19.50;70.90;;;;;;5063747;28;20044;-72
2022/06/21 04:20:33;;;;;;;0.00;0.00;;;19.50;70.40;;;;;;5062979;28;20043;-71
2022/06/21 04:23:13;;;;;;;0.00;0.00;;;19.50;70.00;;;;;;5047728;28;20028;-72
2022/06/21 04:25:59;;;;;;;0.00;0.00;;;19.50;69.30;;;;;;5066342;28;20021;-73
2022/06/21 04:28:31;;;;;;;0.00;0.00;;;19.80;69.20;;;;;;5048790;28;20204;-71
2022/06/21 04:31:03;;;;;;;0.00;0.00;;;19.50;68.80;;;;;;5062468;28;20020;-71
2022/06/21 04:33:44;;;;;;;0.00;0.00;;;19.50;68.00;;;;;;5066154;28;20041;-71
2022/06/21 04:36:24;;;;;;;0.00;0.00;;;19.50;67.60;;;;;;5065272;28;20100;-72
2022/06/21 04:39:01;;;;;;;0.00;0.00;;;19.50;67.50;;;;;;5063224;28;20051;-72
2022/06/21 04:41:37;;;;;;;0.00;0.00;;;19.50;67.40;;;;;;5062368;28;20028;-71
2022/06/21 04:44:07;;;;;;;0.00;0.00;;;19.50;67.40;;;;;;5046020;28;20111;-76
2022/06/21 04:46:53;;;;;;;0.00;0.00;;;19.60;67.70;;;;;;5065069;28;20008;-72
2022/06/21 04:49:26;;;;;;;0.00;0.00;;;19.60;67.40;;;;;;5060397;28;20084;-76
2022/06/21 04:52:05;;;;;;;0.00;0.00;;;19.70;67.70;;;;;;5065240;28;20082;-74
2022/06/21 04:54:34;;;;;;;0.00;0.00;;;19.70;67.30;;;;;;5056137;28;20028;-78
2022/06/21 04:57:08;;;;;;;0.00;0.00;;;19.70;66.00;;;;;;5065476;28;20035;-73
2022/06/21 04:59:55;;;;;;;0.00;0.00;;;19.60;66.20;;;;;;5059824;28;20085;-76
2022/06/21 05:02:33;;;;;;;0.00;0.00;;;19.60;65.20;;;;;;5066311;28;20112;-72
2022/06/21 05:05:06;;;;;;;0.00;0.00;;;19.50;66.10;;;;;;5043824;28;20096;-72
2022/06/21 05:07:50;;;;;;;0.00;0.00;;;19.50;66.10;;;;;;5044979;28;20044;-76
2022/06/21 05:10:27;;;;;;;0.00;0.00;;;19.50;66.80;;;;;;5049957;28;20665;-72
2022/06/21 05:12:54;;;;;;;0.00;0.00;;;19.50;65.80;;;;;;5070103;28;20084;-71
2022/06/21 05:15:28;;;;;;;0.00;0.00;;;19.50;67.40;;;;;;5059736;28;20103;-70
2022/06/21 05:18:02;;;;;;;0.00;0.00;;;19.60;68.80;;;;;;5062462;28;20028;-70
2022/06/21 05:20:32;;;;;;;0.00;0.00;;;19.70;67.30;;;;;;5062012;28;20044;-71
2022/06/21 05:23:01;;;;;;;0.00;0.00;;;19.70;66.60;;;;;;5064765;28;20040;-71
2022/06/21 05:25:29;;;;;;;0.00;0.00;;;19.80;66.40;;;;;;5061082;28;20025;-71
2022/06/21 05:28:22;;;;;;;0.00;0.00;;;19.80;66.10;;;;;;5064180;28;20028;-71
2022/06/21 05:31:17;;;;;;;0.00;0.00;;;19.80;65.80;;;;;;5062796;28;20212;-72
2022/06/21 05:33:58;;;;;;;0.00;0.00;;;19.80;66.20;;;;;;5045475;28;20113;-71
2022/06/21 05:36:38;;;;;;;0.00;0.00;;;19.90;66.00;;;;;;5063383;28;20027;-71
2022/06/21 05:39:23;;;;;;;0.00;0.00;;;20.00;65.20;;;;;;5061834;28;20024;-71
2022/06/21 05:41:55;;;;;;;0.00;0.00;;;20.00;65.40;;;;;;5051506;28;20028;-70
2022/06/21 05:44:34;;;;;;;0.00;0.00;;;20.00;65.40;;;;;;5062727;28;20021;-71
2022/06/21 05:47:26;;;;;;;0.00;0.00;;;20.00;66.20;;;;;;5059157;28;20016;-71
2022/06/21 05:49:53;;;;;;;0.00;0.00;;;20.10;66.10;;;;;;5062529;28;20595;-71
2022/06/21 05:52:26;;;;;;;0.00;0.00;;;20.10;66.10;;;;;;5064022;28;20025;-71
2022/06/21 05:55:07;;;;;;;0.00;0.00;;;20.20;66.50;;;;;;5063399;28;20024;-71
2022/06/21 05:57:41;;;;;;;0.00;0.00;;;20.40;65.90;;;;;;5069062;28;20083;-76
2022/06/21 06:00:30;;;;;;;0.00;0.00;;;20.40;66.70;;;;;;5049392;28;20123;-71
2022/06/21 06:03:11;;;;;;;0.00;0.00;;;20.50;67.00;;;;;;5087807;28;20519;-71
2022/06/21 06:05:37;;;;;;;0.00;0.00;;;20.50;66.20;;;;;;5080338;28;20032;-72
2022/06/21 06:08:10;;;;;;;0.00;0.00;;;20.60;64.70;;;;;;5085823;28;20313;-71
2022/06/21 06:10:40;;;;;;;0.00;0.00;;;20.60;64.40;;;;;;5083520;28;20024;-72
2022/06/21 06:13:16;;;;;;;0.00;0.00;;;20.90;64.60;;;;;;5084669;28;20052;-77
2022/06/21 06:16:06;;;;;;;0.00;0.00;;;21.30;65.70;;;;;;5081341;28;20028;-74
2022/06/21 06:19:25;;;;;;;0.00;0.00;;;22.10;65.80;;;;;;5087650;28;20028;-71
2022/06/21 06:22:05;;;;;;;0.00;0.00;;;22.70;62.60;;;;;;5079425;28;20032;-72
2022/06/21 06:24:50;;;;;;;0.00;0.00;;;23.50;62.30;;;;;;5086067;28;20035;-76
2022/06/21 06:27:39;;;;;;;0.00;0.00;;;24.30;59.80;;;;;;5077811;28;20296;-78
2022/06/21 06:30:12;;;;;;;0.00;0.00;;;25.00;57.50;;;;;;5068647;28;20100;-77
2022/06/21 06:32:44;;;;;;;0.00;0.00;;;25.80;57.00;;;;;;5088509;28;20074;-76
2022/06/21 06:35:21;;;;;;;0.00;0.00;;;26.50;56.30;;;;;;5084332;28;20055;-76
2022/06/21 06:37:47;;;;;;;0.00;0.00;;;27.10;55.40;;;;;;5088182;28;20091;-75
2022/06/21 06:40:28;;;;;;;0.00;0.00;;;27.60;53.60;;;;;;5082794;28;20028;-76
2022/06/21 06:43:27;;;;;;;0.00;0.00;;;28.10;53.10;;;;;;5083888;28;20025;-76
2022/06/21 06:45:56;;;;;;;0.00;0.00;;;28.60;51.90;;;;;;5081581;28;20116;-76
2022/06/21 06:48:30;;;;;;;0.00;0.00;;;29.10;50.10;;;;;;5087459;28;20023;-76
2022/06/21 06:51:03;;;;;;;0.00;0.00;;;29.20;49.20;;;;;;5085513;28;20226;-79
2022/06/21 06:53:39;;;;;;;0.00;0.00;;;29.50;49.10;;;;;;5087281;28;20077;-77
2022/06/21 06:56:13;;;;;;;0.00;0.00;;;29.80;48.80;;;;;;5086871;28;20017;-77
2022/06/21 06:58:53;;;;;;;0.00;0.00;;;30.30;50.30;;;;;;5083417;28;20024;-76
2022/06/21 07:01:45;;;;;;;0.00;0.00;;;30.50;50.80;;;;;;5097317;28;20048;-77
2022/06/21 07:04:15;;;;;;;0.00;0.00;;;30.70;47.70;;;;;;5085983;28;20042;-76
2022/06/21 07:06:45;;;;;;;0.00;0.00;;;31.10;46.50;;;;;;5092874;28;20210;-77
2022/06/21 07:09:16;;;;;;;0.00;0.00;;;31.30;47.50;;;;;;5086858;28;20062;-77
2022/06/21 07:11:42;;;;;;;0.00;0.00;;;31.60;45.90;;;;;;5092234;28;20376;-77
2022/06/21 07:14:12;;;;;;;0.00;0.00;;;32.00;45.30;;;;;;5090782;28;20020;-76
2022/06/21 07:16:40;;;;;;;0.00;0.00;;;32.30;44.70;;;;;;5088665;28;20084;-76
2022/06/21 07:19:09;;;;;;;0.00;0.00;;;32.40;44.20;;;;;;5086533;28;20225;-79
2022/06/21 07:21:37;;;;;;;0.00;0.00;;;32.40;43.10;;;;;;5081838;28;20022;-79
2022/06/21 07:24:08;;;;;;;0.00;0.00;;;32.30;43.50;;;;;;5090819;28;20326;-76
2022/06/21 07:26:52;;;;;;;0.00;0.00;;;31.90;44.00;;;;;;5084726;28;20331;-78
2022/06/21 07:29:49;;;;;;;0.00;0.00;;;31.00;44.20;;;;;;5094005;28;20026;-77
2022/06/21 07:32:23;;;;;;;0.00;0.00;;;30.10;44.50;;;;;;5083567;28;20040;-77
2022/06/21 07:35:06;;;;;;;0.00;0.00;;;28.90;46.90;;;;;;5088722;28;20103;-76
2022/06/21 07:37:42;;;;;;;0.00;0.00;;;28.10;48.40;;;;;;5089631;28;20060;-77
2022/06/21 07:40:22;;;;;;;0.00;0.00;;;27.40;52.50;;;;;;5096646;28;20267;-79
2022/06/21 07:43:21;;;;;;;0.00;0.00;;;26.90;51.70;;;;;;5088332;28;20012;-80
2022/06/21 07:45:55;;;;;;;0.00;0.00;;;26.60;52.40;;;;;;5063093;28;20089;-78
2022/06/21 07:48:43;;;;;;;0.00;0.00;;;25.90;51.30;;;;;;5094413;28;20020;-77
2022/06/21 07:51:21;;;;;;;0.00;0.00;;;25.80;56.20;;;;;;5086160;28;20031;-80
2022/06/21 07:53:48;;;;;;;0.00;0.00;;;25.70;57.20;;;;;;5086726;28;20032;-77
2022/06/21 07:56:20;;;;;;;0.00;0.00;;;25.80;57.00;;;;;;5086608;28;20059;-80
2022/06/21 07:58:59;;;;;;;0.00;0.00;;;25.80;53.50;;;;;;5082540;28;20067;-77
2022/06/21 08:07:31;;;;;;;0.00;0.00;;;27.80;53.50;;;;;;5089979;28;20058;-77
2022/06/21 08:10:03;;;;;;;0.00;0.00;;;29.20;51.30;;;;;;5088221;28;20024;-78
2022/06/21 08:12:28;;;;;;;0.00;0.00;;;30.80;52.30;;;;;;5089146;28;20303;-76
2022/06/21 08:14:55;;;;;;;0.00;0.00;;;32.20;48.90;;;;;;5085292;28;20052;-78
2022/06/21 08:17:39;;;;;;;0.00;0.00;;;33.70;48.50;;;;;;5085370;28;20312;-77
2022/06/21 08:20:31;;;;;;;0.00;0.00;;;34.90;45.90;;;;;;5084388;28;20054;-81
2022/06/21 08:23:07;;;;;;;0.00;0.00;;;35.20;43.80;;;;;;5093062;28;20342;-79
2022/06/21 08:25:51;;;;;;;0.00;0.00;;;35.50;43.10;;;;;;5084834;28;20025;-77
2022/06/21 08:28:27;;;;;;;0.00;0.00;;;36.20;42.50;;;;;;5093924;28;20020;-77
2022/06/21 08:30:59;;;;;;;0.00;0.00;;;37.30;41.80;;;;;;5086954;28;20012;-78
2022/06/21 08:33:35;;;;;;;0.00;0.00;;;38.20;42.20;;;;;;5084486;28;20024;-82
2022/06/21 08:36:24;;;;;;;0.00;0.00;;;38.60;39.40;;;;;;5089144;28;20027;-78
2022/06/21 08:39:08;;;;;;;0.00;0.00;;;39.30;40.40;;;;;;5086670;28;20028;-77
2022/06/21 08:42:00;;;;;;;0.00;0.00;;;39.90;39.10;;;;;;5084981;28;20020;-80
2022/06/21 08:48:03;;;;;;;0.00;0.00;;;40.80;39.20;;;;;;5084034;28;20299;-79
2022/06/21 08:50:42;;;;;;;0.00;0.00;;;41.30;37.80;;;;;;5083318;28;20299;-78
2022/06/21 08:53:16;;;;;;;0.00;0.00;;;41.80;37.80;;;;;;5093388;28;20027;-78
2022/06/21 08:56:04;;;;;;;0.00;0.00;;;42.20;36.90;;;;;;5080729;28;20091;-78
2022/06/21 08:59:07;;;;;;;0.00;0.00;;;42.30;35.10;;;;;;5093596;28;20235;-78
2022/06/21 09:01:38;;;;;;;0.00;0.00;;;42.40;36.10;;;;;;5069238;28;20101;-79
2022/06/21 09:04:33;;;;;;;0.00;0.00;;;41.60;35.30;;;;;;5062020;28;20035;-78
2022/06/21 09:07:01;;;;;;;0.00;0.00;;;41.60;36.10;;;;;;5066859;28;20024;-79
2022/06/21 09:10:06;;;;;;;0.00;0.00;;;41.20;35.40;;;;;;5047222;28;20082;-80
2022/06/21 09:12:57;;;;;;;0.00;0.00;;;40.30;36.00;;;;;;5063127;28;20016;-79
2022/06/21 09:15:37;;;;;;;0.00;0.00;;;39.70;36.80;;;;;;5067518;28;20088;-81
2022/06/21 09:18:13;;;;;;;0.00;0.00;;;40.10;37.60;;;;;;5064083;28;20012;-78
2022/06/21 09:20:51;;;;;;;;;;;41.20;36.80;;;;;;5066475;28;20008;-81
2022/06/21 09:23:35;;;;;;;0.00;0.00;;;41.50;35.10;;;;;;5060849;28;19923;-81
2022/06/21 09:26:19;;;;;;;0.00;0.00;;;42.30;35.30;;;;;;5064499;28;20036;-78
2022/06/21 09:29:03;;;;;;;0.00;0.00;;;42.90;34.80;;;;;;5063736;28;20024;-80
2022/06/21 09:31:49;;;;;;;0.00;0.00;;;43.40;35.10;;;;;;5063115;28;20211;-78
2022/06/21 09:34:22;;;;;;;0.00;0.00;;;43.80;35.00;;;;;;5049280;28;20204;-81
2022/06/21 09:36:59;;;;;;;0.00;0.00;;;44.20;34.30;;;;;;5048160;28;20044;-79
2022/06/21 09:39:43;;;;;;;0.00;0.00;;;44.50;33.80;;;;;;5046758;28;20028;-78
2022/06/21 09:42:32;;;;;;;0.00;0.00;;;45.00;33.90;;;;;;5064819;28;20025;-80
2022/06/21 09:45:10;;;;;;;0.00;0.00;;;45.30;33.10;;;;;;5047709;28;20304;-78
2022/06/21 09:47:51;;;;;;;0.00;0.00;;;45.30;32.60;;;;;;5043766;28;20394;-80
2022/06/21 09:50:23;;;;;;;0.00;0.00;;;45.60;32.00;;;;;;5063189;28;20021;-79
2022/06/21 09:53:40;;;;;;;0.00;0.00;;;45.80;32.60;;;;;;5047322;28;20048;-78
2022/06/21 09:56:15;;;;;;;0.00;0.00;;;45.70;33.30;;;;;;5034579;28;20090;-82
2022/06/21 09:59:05;;;;;;;0.00;0.00;;;45.60;32.60;;;;;;5068557;28;20364;-79
2022/06/21 10:02:15;;;;;;;0.00;0.00;;;45.40;32.00;;;;;;5099944;28;20062;-76
2022/06/21 10:05:00;;;;;;;0.00;0.00;;;44.50;31.30;;;;;;5086102;28;20050;-78
2022/06/21 10:07:50;;;;;;;0.00;0.00;;;44.00;33.40;;;;;;5084392;28;20024;-82
2022/06/21 10:10:57;;;;;;;0.00;0.00;;;44.60;32.80;;;;;;5084866;28;20050;-81
2022/06/21 10:14:01;;;;;;;0.00;0.00;;;44.50;32.00;;;;;;5084589;28;20016;-78
2022/06/21 10:16:36;;;;;;;;;;;45.00;32.30;;;;;;5081693;28;20044;-78
2022/06/21 10:19:54;;;;;;;0.00;0.00;;;45.70;31.80;;;;;;5083966;28;20182;-81
2022/06/21 10:22:33;;;;;;;0.00;0.00;;;45.30;31.30;;;;;;5069601;28;20035;-76
2022/06/21 10:25:19;;;;;;;0.00;0.00;;;45.70;31.60;;;;;;5086685;28;20079;-75
2022/06/21 10:28:02;;;;;;;0.00;0.00;;;46.20;30.70;;;;;;5073234;28;20067;-74
2022/06/21 10:30:46;;;;;;;0.00;0.00;;;46.10;30.50;;;;;;5084987;28;20307;-76
2022/06/21 10:33:15;;;;;;;0.00;0.00;;;45.80;30.50;;;;;;5084610;28;20035;-74
2022/06/21 10:36:15;;;;;;;0.00;0.00;;;45.80;30.60;;;;;;5088941;28;20024;-75
2022/06/21 10:39:08;;;;;;;0.00;0.00;;;45.90;30.90;;;;;;5089093;28;20062;-84
2022/06/21 10:41:39;;;;;;;0.00;0.00;;;46.30;31.10;;;;;;5087986;28;20032;-74
2022/06/21 10:44:11;;;;;;;0.00;0.00;;;46.80;31.20;;;;;;5091343;28;20020;-73
2022/06/21 10:46:44;;;;;;;0.00;0.00;;;47.30;31.00;;;;;;5086935;28;20299;-77
2022/06/21 10:49:22;;;;;;;0.00;0.00;;;47.60;30.30;;;;;;5088480;28;20028;-74
2022/06/21 10:52:06;;;;;;;0.00;0.00;;;47.90;29.60;;;;;;5096290;28;20020;-74
2022/06/21 10:54:58;;;;;;;0.00;0.00;;;48.10;29.50;;;;;;5088456;28;20029;-76
2022/06/21 10:57:53;;;;;;;0.00;0.00;;;47.60;28.90;;;;;;5085443;28;20029;-74
2022/06/21 11:03:44;;;;;;;0.00;0.00;;;47.10;29.70;;;;;;5066121;28;20067;-74
2022/06/21 11:06:34;;;;;;;0.00;0.00;;;47.40;31.60;;;;;;5069189;28;20181;-74
2022/06/21 11:09:03;;;;;;;0.00;0.00;;;47.70;30.60;;;;;;5070114;28;20402;-75
2022/06/21 11:11:50;;;;;;;0.00;0.00;;;46.80;28.90;;;;;;5070451;28;20016;-80
2022/06/21 11:14:48;;;;;;;0.00;0.00;;;46.20;29.90;;;;;;5071472;28;20699;-83
2022/06/21 11:17:17;;;;;;;0.00;0.00;;;46.30;29.40;;;;;;5062868;28;20024;-77
2022/06/21 11:19:45;;;;;;;0.00;0.00;;;46.10;29.20;;;;;;5070752;28;20024;-78
2022/06/21 11:22:32;;;;;;;0.00;0.00;;;45.50;29.30;;;;;;5071305;28;20017;-77
2022/06/21 11:24:58;;;;;;;0.00;0.00;;;44.80;29.80;;;;;;5064422;28;20025;-74
2022/06/21 11:27:29;;;;;;;0.00;0.00;;;44.30;29.50;;;;;;5070281;28;20032;-79
2022/06/21 11:30:17;;;;;;;0.00;0.00;;;43.40;29.20;;;;;;5072674;28;20028;-75
2022/06/21 11:33:03;;;;;;;0.00;0.00;;;42.30;29.80;;;;;;5068811;28;20029;-84
2022/06/21 11:35:53;;;;;;;0.00;0.00;;;41.10;30.10;;;;;;5070078;28;20020;-81
2022/06/21 11:38:56;;;;;;;0.00;0.00;;;39.80;31.30;;;;;;5049481;28;20316;-75
2022/06/21 11:42:04;;;;;;;0.00;0.00;;;38.70;31.40;;;;;;5069850;28;20081;-75
2022/06/21 11:44:51;;;;;;;0.00;0.00;;;37.30;31.70;;;;;;5068710;28;20108;-76
2022/06/21 11:47:33;;;;;;;0.00;0.00;;;36.00;32.80;;;;;;5051031;28;20033;-75
2022/06/21 11:50:20;;;;;;;0.00;0.00;;;34.90;35.00;;;;;;5048844;28;20025;-75
2022/06/21 11:53:17;;;;;;;0.00;0.00;;;34.20;37.30;;;;;;5048135;28;20091;-76
2022/06/21 11:56:02;;;;;;;0.00;0.00;;;33.50;37.00;;;;;;5048886;28;20025;-80
2022/06/21 11:58:31;;;;;;;0.00;0.00;;;32.60;36.90;;;;;;5068784;28;20212;-75
2022/06/21 12:01:15;;;;;;;0.00;0.00;;;31.80;37.40;;;;;;5071462;28;20045;-77
2022/06/21 12:04:07;;;;;;;0.00;0.00;;;31.20;38.30;;;;;;5082314;28;20027;-75
2022/06/21 12:06:45;;;;;;;0.00;0.00;;;30.80;41.70;;;;;;5087937;28;20078;-77
2022/06/21 12:09:23;;;;;;;0.00;0.00;;;30.60;38.60;;;;;;5086763;28;20027;-75
2022/06/21 12:12:05;;;;;;;0.00;0.00;;;30.30;39.70;;;;;;5089686;28;20130;-76
2022/06/21 12:15:07;;;;;;;0.00;0.00;;;30.10;41.80;;;;;;5089503;28;20047;-79
2022/06/21 12:18:11;;;;;;;0.00;0.00;;;29.70;39.80;;;;;;5095673;28;20035;-75
2022/06/21 12:20:58;;;;;;;0.00;0.00;;;29.30;41.10;;;;;;5070959;28;20046;-80
2022/06/21 12:23:37;;;;;;;0.00;0.00;;;29.10;41.40;;;;;;5086651;28;20040;-76
2022/06/21 12:26:05;;;;;;;0.00;0.00;;;29.00;41.20;;;;;;5090032;28;20756;-76
2022/06/21 12:28:33;;;;;;;0.00;0.00;;;28.80;41.70;;;;;;5089000;28;20024;-77
2022/06/21 12:31:03;;;;;;;0.00;0.00;;;28.60;41.10;;;;;;5085106;28;20020;-76
2022/06/21 12:33:37;;;;;;;0.00;0.00;;;28.40;41.90;;;;;;5087859;28;20020;-75
2022/06/21 12:36:03;;;;;;;0.00;0.00;;;28.30;41.40;;;;;;5090614;28;20166;-76
2022/06/21 12:38:56;;;;;;;0.00;0.00;;;28.10;41.20;;;;;;5087477;28;20294;-75
2022/06/21 12:41:22;;;;;;;0.00;0.00;;;27.90;42.90;;;;;;5087759;28;20103;-74
2022/06/21 12:44:40;;;;;;;0.00;0.00;;;27.90;42.10;;;;;;5086879;28;20056;-75
2022/06/21 12:47:44;;;;;;;0.00;0.00;;;27.80;43.30;;;;;;5047683;28;20254;-76
2022/06/21 12:50:24;;;;;;;0.00;0.00;;;27.70;42.60;;;;;;5082368;28;20089;-75
2022/06/21 12:53:10;;;;;;;0.00;0.00;;;27.70;42.00;;;;;;5084054;28;20048;-76
2022/06/21 12:55:57;;;;;;;0.00;0.00;;;27.80;42.90;;;;;;5082522;28;20036;-75
2022/06/21 12:58:41;;;;;;;0.00;0.00;;;27.80;41.60;;;;;;5085095;28;20021;-77
2022/06/21 13:01:21;;;;;;;0.00;0.00;;;27.70;43.20;;;;;;5092498;28;20048;-74
2022/06/21 13:04:18;;;;;;;0.00;0.00;;;27.80;41.70;;;;;;5083696;28;20023;-78
2022/06/21 13:06:47;;;;;;;0.00;0.00;;;27.70;43.20;;;;;;5092860;28;20043;-75
2022/06/21 13:09:56;;;;;;;0.00;0.00;;;27.70;42.50;;;;;;5079603;28;20347;-74
2022/06/21 13:12:28;;;;;;;0.00;0.00;;;27.70;43.70;;;;;;5087216;28;20032;-74
2022/06/21 13:15:21;;;;;;;0.00;0.00;;;27.70;41.80;;;;;;5087877;28;20200;-74
2022/06/21 13:18:44;;;;;;;0.00;0.00;;;27.70;43.40;;;;;;5098242;28;20028;-74
2022/06/21 13:21:34;;;;;;;0.00;0.00;;;27.70;42.00;;;;;;5048426;28;20029;-74
2022/06/21 13:24:25;;;;;;;0.00;0.00;;;27.70;42.40;;;;;;5043485;28;20277;-73
2022/06/21 13:27:13;;;;;;;0.00;0.00;;;27.70;42.60;;;;;;5044610;28;20033;-75
2022/06/21 13:29:49;;;;;;;0.00;0.00;;;27.70;43.80;;;;;;5043513;28;20018;-76
2022/06/21 13:32:23;;;;;;;0.00;0.00;;;27.70;43.90;;;;;;5030583;28;20029;-75
2022/06/21 13:34:56;;;;;;;0.00;0.00;;;27.80;42.90;;;;;;5041387;28;20039;-75
2022/06/21 13:37:33;;;;;;;0.00;0.00;;;27.60;42.70;;;;;;5030470;28;20090;-74
2022/06/21 13:40:19;;;;;;;0.00;0.00;;;27.60;43.80;;;;;;5044648;28;20227;-75
2022/06/21 13:43:20;;;;;;;0.00;0.00;;;27.60;42.60;;;;;;5028806;28;20025;-83
2022/06/21 13:45:51;;;;;;;0.00;0.00;;;27.60;43.10;;;;;;5019931;28;20299;-83
2022/06/21 13:48:48;;;;;;;0.00;0.00;;;27.50;43.20;;;;;;5031404;28;20025;-75
2022/06/21 13:51:13;;;;;;;0.00;0.00;;;27.50;43.30;;;;;;5041411;28;20252;-74
2022/06/21 13:54:00;;;;;;;0.00;0.00;;;27.50;43.10;;;;;;5084763;28;20031;-77
2022/06/21 13:56:38;;;;;;;0.00;0.00;;;27.40;43.30;;;;;;5083973;28;20040;-77
2022/06/21 13:59:43;;;;;;;0.00;0.00;;;27.40;42.90;;;;;;5088845;28;20024;-75